• Join FlightAware (Why Join?)
  • Login
  • US Flag 
02:35PM EDT


 

Airport Tracker/Info


-or-


 

Live Flight TrackerFlight Track Log ✈ EMD21 ✈ 21-Jul-2013 ✈ KHRO - KMLC

Flight Track Log - Related Links

Times and Time Zones

All times are in EDT time to prevent confusion due to time zone crossing. See the EMD21 flight status page for this flight to view local times or setup timezone preferences in your user account.

Time Position Orientation Groundspeed Altitude Reporting Facility
EDT Latitude Longitude Course Direction KTS MPH feet Rate Location/Type
12:06PM 36.1622 -93.2747 238° Southwest 229 264 5,500  Level Memphis Center
12:07PM 36.1303 -93.3019 215° Southwest 194 223 6,900 1,500 Climbing Memphis Center
12:08PM 36.1003 -93.3369 223° Southwest 168 193 8,600 1,440 Climbing Memphis Center
12:09PM 36.0722 -93.3717 225° Southwest 155 178 9,800 900 Climbing Memphis Center
12:10PM 36.0896 -93.4708 238° Southwest  Level FlightAware Approximate
12:10PM 36.0319 -93.3986 208° Southwest 149 171 10,400  Level Memphis Center
12:11PM 35.9833 -93.4225 202° Southwest 171 197 11,100 600 Climbing Memphis Center
12:12PM 35.9367 -93.4539 209° Southwest 187 215 11,600 300 Climbing Memphis Center
12:13PM 35.9061 -93.5144 238° Southwest 192 221 11,800 240 Climbing Memphis Center
12:14PM 35.8856 -93.5775 248° West 207 238 12,100 120 Climbing Memphis Center
12:15PM 35.8608 -93.6458 246° West 207 238 12,100  Level Memphis Center
12:16PM 35.8342 -93.7114 243° Southwest 213 245 12,100  Level Memphis Center
12:17PM 35.8033 -93.7739 239° Southwest 213 245 12,100  Level Memphis Center
12:18PM 35.7722 -93.8367 239° Southwest 218 251 12,100  Level Memphis Center
12:19PM 35.7433 -93.9044 242° Southwest 223 257 12,100  Level Memphis Center
12:20PM 35.7142 -93.9725 242° Southwest 223 257 12,100  Level Memphis Center
12:21PM 35.6808 -94.0500 242° Southwest 230 265 12,100  Level Memphis Center
12:22PM 35.6536 -94.1178 244° Southwest 235 270 12,100 -60 Level Memphis Center
12:23PM 35.6292 -94.1678 239° Southwest 230 265 12,000 -60 Descending Memphis Center
12:24PM 35.5958 -94.2328 238° Southwest 225 259 12,000  Level Memphis Center
12:25PM 35.5667 -94.3003 242° Southwest 220 253 12,000  Level Memphis Center
12:26PM 35.5350 -94.3803 244° Southwest 237 273 12,000  Level Memphis Center
12:27PM 35.5058 -94.4428 240° Southwest 237 273 12,000  Level Memphis Center
12:28PM 35.4764 -94.5103 242° Southwest 227 261 12,000  Level Memphis Center
12:29PM 35.4472 -94.5750 241° Southwest 227 261 12,000  Level Memphis Center
12:30PM 35.4158 -94.6397 239° Southwest 222 255 12,000  Level Memphis Center
12:31PM 35.3883 -94.7044 242° Southwest 222 255 12,000  Level Memphis Center
12:32PM 35.3614 -94.7642 241° Southwest 222 255 12,000  Level Memphis Center
12:33PM 35.3300 -94.8261 238° Southwest 217 250 12,000  Level Memphis Center
12:34PM 35.3006 -94.8906 241° Southwest 217 250 12,000 -60 Level Memphis Center
12:35PM 35.2731 -94.9553 243° Southwest 217 250 11,900 -540 Descending Memphis Center
12:36PM 35.2392 -95.0219 238° Southwest 225 259 11,000 -720 Descending Memphis Center
12:38PM 35.1817 -95.1553 242° Southwest 222 255 9,700 -720 Descending Fort Worth Center
12:39PM 35.1514 -95.2172 239° Southwest 222 255 8,900 -1,140 Descending Fort Worth Center
12:40PM 35.1172 -95.2917 241° Southwest 234 269 7,500 -1,200 Descending Fort Worth Center
12:41PM 35.0850 -95.3636 241° Southwest 234 269 6,500 -960 Descending Fort Worth Center
12:42PM 35.0569 -95.4250 241° Southwest 228 262 5,600 -840 Descending Fort Worth Center
12:43PM 35.0264 -95.4867 239° Southwest 223 257 4,900 -720 Descending Fort Worth Center